Time;durP1;ratioP1;P1;durP2;ratioP2;P2;SDS_P1;SDS_P2;PMS_P1;PMS_P2;Temp;Humidity;BMP_temperature;BMP_pressure;BME280_temperature;BME280_humidity;BME280_pressure;Samples;Min_cycle;Max_cycle;Signal;HPM_P1;HPM_P2
2023/06/18 00:00:59;;;;;;;19.63;17.63;;;;;;;;;;4954957;29;20710;-83
2023/06/18 00:03:28;;;;;;;19.63;17.50;;;;;;;;;;4954199;29;20691;-83
2023/06/18 00:05:55;;;;;;;19.98;17.98;;;;;;;;;;4955038;29;20237;-82
2023/06/18 00:08:22;;;;;;;21.02;18.75;;;;;;;;;;4954663;29;20223;-82
2023/06/18 00:10:49;;;;;;;21.15;18.60;;;;;;;;;;4954571;29;20231;-83
2023/06/18 00:13:16;;;;;;;20.08;18.10;;;;;;;;;;4953479;28;20206;-82
2023/06/18 00:15:44;;;;;;;20.00;17.52;;;;;;;;;;4954301;29;20226;-82
2023/06/18 00:18:11;;;;;;;19.65;17.27;;;;;;;;;;4954175;29;20325;-83
2023/06/18 00:20:39;;;;;;;19.20;17.45;;;;;;;;;;4954427;28;20199;-82
2023/06/18 00:23:08;;;;;;;19.35;17.13;;;;;;;;;;4954730;29;20207;-83
2023/06/18 00:25:36;;;;;;;20.02;18.00;;;;;;;;;;4954285;29;20252;-83
2023/06/18 00:28:03;;;;;;;20.80;18.70;;;;;;;;;;4954051;29;20206;-83
2023/06/18 00:30:31;;;;;;;19.90;17.80;;;;;;;;;;4954187;29;20294;-83
2023/06/18 00:32:59;;;;;;;19.15;16.48;;;;;;;;;;4954342;29;20199;-83
2023/06/18 00:35:26;;;;;;;18.17;16.10;;;;;;;;;;4953893;28;20643;-83
2023/06/18 00:37:55;;;;;;;17.52;15.70;;;;;;;;;;4954200;28;20199;-83
2023/06/18 00:40:23;;;;;;;17.25;15.48;;;;;;;;;;4954248;29;20199;-82
2023/06/18 00:42:52;;;;;;;16.77;15.15;;;;;;;;;;4953897;29;20680;-82
2023/06/18 00:45:20;;;;;;;17.10;15.32;;;;;;;;;;4952626;29;20233;-83
2023/06/18 00:47:49;;;;;;;17.35;15.65;;;;;;;;;;4953874;28;20210;-83
2023/06/18 00:50:17;;;;;;;16.92;15.23;;;;;;;;;;4953771;29;20668;-84
2023/06/18 00:52:47;;;;;;;16.48;14.88;;;;;;;;;;4953866;29;20218;-83
2023/06/18 00:55:16;;;;;;;17.08;14.40;;;;;;;;;;4953782;28;20200;-82
2023/06/18 00:57:44;;;;;;;15.95;14.32;;;;;;;;;;4953937;29;20577;-83
2023/06/18 01:00:12;;;;;;;16.30;14.57;;;;;;;;;;4953697;29;20297;-83
2023/06/18 01:02:45;;;;;;;16.38;14.68;;;;;;;;;;4954064;29;20199;-82
2023/06/18 01:05:13;;;;;;;17.58;15.68;;;;;;;;;;4953231;29;20673;-83
2023/06/18 01:07:40;;;;;;;16.65;15.05;;;;;;;;;;4953441;28;20203;-83
2023/06/18 01:10:08;;;;;;;16.45;14.95;;;;;;;;;;4953502;28;20207;-83
2023/06/18 01:12:37;;;;;;;16.65;14.13;;;;;;;;;;4953226;29;20195;-83
2023/06/18 01:15:04;;;;;;;16.50;14.82;;;;;;;;;;4953597;28;20207;-83
2023/06/18 01:17:34;;;;;;;18.33;15.27;;;;;;;;;;4953392;28;20687;-83
2023/06/18 01:20:08;;;;;;;17.05;15.35;;;;;;;;;;4953461;28;20694;-83
2023/06/18 01:22:38;;;;;;;16.77;15.07;;;;;;;;;;4953398;28;20683;-83
2023/06/18 01:25:06;;;;;;;16.58;14.88;;;;;;;;;;4953142;28;20215;-83
2023/06/18 01:27:34;;;;;;;18.48;16.50;;;;;;;;;;4953462;28;20232;-83
2023/06/18 01:30:03;;;;;;;18.13;16.23;;;;;;;;;;4953160;29;20235;-84
2023/06/18 01:32:31;;;;;;;17.58;15.75;;;;;;;;;;4953917;28;20223;-83
2023/06/18 01:35:00;;;;;;;16.95;15.35;;;;;;;;;;4953248;28;20210;-83
2023/06/18 01:37:36;;;;;;;17.10;15.38;;;;;;;;;;4953446;29;20207;-82
2023/06/18 01:40:12;;;;;;;18.38;16.45;;;;;;;;;;4952940;28;20203;-83
2023/06/18 01:42:41;;;;;;;16.90;15.10;;;;;;;;;;4953407;29;20206;-82
2023/06/18 01:45:13;;;;;;;18.17;15.98;;;;;;;;;;4953236;28;20294;-83
2023/06/18 01:47:40;;;;;;;18.08;15.80;;;;;;;;;;4953190;28;20285;-83
2023/06/18 01:50:08;;;;;;;20.15;16.92;;;;;;;;;;4948625;28;20285;-83
2023/06/18 01:52:39;;;;;;;18.55;16.70;;;;;;;;;;4944489;29;20214;-82
2023/06/18 01:55:07;;;;;;;19.58;17.67;;;;;;;;;;4952775;29;20203;-82
2023/06/18 01:57:35;;;;;;;20.13;17.60;;;;;;;;;;4953149;28;20203;-82
2023/06/18 02:00:04;;;;;;;20.02;17.88;;;;;;;;;;4953377;29;20203;-81
2023/06/18 02:02:32;;;;;;;23.23;18.33;;;;;;;;;;4952996;29;20298;-82
2023/06/18 02:05:00;;;;;;;21.45;18.05;;;;;;;;;;4953282;29;20241;-82
2023/06/18 02:07:27;;;;;;;19.63;17.65;;;;;;;;;;4952841;29;20265;-82
2023/06/18 02:09:54;;;;;;;23.50;18.58;;;;;;;;;;4952957;29;20294;-82
2023/06/18 02:12:21;;;;;;;21.58;19.25;;;;;;;;;;4952649;29;20298;-82
2023/06/18 02:14:48;;;;;;;20.98;18.60;;;;;;;;;;4952425;28;20760;-82
2023/06/18 02:17:15;;;;;;;21.90;19.05;;;;;;;;;;4952689;29;20690;-82
2023/06/18 02:19:44;;;;;;;23.20;19.13;;;;;;;;;;4953061;28;20199;-82
2023/06/18 02:22:11;;;;;;;23.15;19.17;;;;;;;;;;4952612;29;20200;-81
2023/06/18 02:24:38;;;;;;;20.95;18.83;;;;;;;;;;4952686;29;20286;-82
2023/06/18 02:27:06;;;;;;;20.38;18.27;;;;;;;;;;4952796;29;20318;-82
2023/06/18 02:29:33;;;;;;;22.20;19.17;;;;;;;;;;4953086;29;20203;-80
2023/06/18 02:32:00;;;;;;;22.45;18.50;;;;;;;;;;4952497;29;20199;-82
2023/06/18 02:34:28;;;;;;;20.05;18.05;;;;;;;;;;4953165;28;20199;-82
2023/06/18 02:36:57;;;;;;;22.13;19.42;;;;;;;;;;4954528;28;20266;-82
2023/06/18 02:39:24;;;;;;;24.10;18.88;;;;;;;;;;4956009;28;20241;-82
2023/06/18 02:41:51;;;;;;;20.98;18.85;;;;;;;;;;4956244;28;20290;-81
2023/06/18 02:44:19;;;;;;;19.88;17.88;;;;;;;;;;4956661;29;20235;-82
2023/06/18 02:46:46;;;;;;;19.80;17.73;;;;;;;;;;4956214;28;20239;-82
2023/06/18 02:49:14;;;;;;;19.15;16.63;;;;;;;;;;4955883;29;20285;-82
2023/06/18 02:51:41;;;;;;;17.73;15.93;;;;;;;;;;4956083;29;20203;-82
2023/06/18 02:54:09;;;;;;;18.77;16.85;;;;;;;;;;4955840;29;20732;-82
2023/06/18 02:56:36;;;;;;;18.45;16.50;;;;;;;;;;4956116;29;20196;-82
2023/06/18 02:59:04;;;;;;;19.20;17.20;;;;;;;;;;4956010;28;20203;-82
2023/06/18 03:01:32;;;;;;;20.52;18.25;;;;;;;;;;4955628;29;20203;-82
2023/06/18 03:03:59;;;;;;;24.48;18.35;;;;;;;;;;4955834;28;20258;-81
2023/06/18 03:06:27;;;;;;;21.40;17.88;;;;;;;;;;4955153;28;20227;-82
2023/06/18 03:08:54;;;;;;;24.10;17.83;;;;;;;;;;4955940;29;20199;-82
2023/06/18 03:11:23;;;;;;;24.70;18.63;;;;;;;;;;4955374;29;20699;-82
2023/06/18 03:13:51;;;;;;;25.08;19.00;;;;;;;;;;4955779;28;20234;-82
2023/06/18 03:16:18;;;;;;;22.70;17.75;;;;;;;;;;4965803;28;20282;-82
2023/06/18 03:18:45;;;;;;;23.80;18.02;;;;;;;;;;4974699;28;20297;-82
2023/06/18 03:21:12;;;;;;;25.30;18.52;;;;;;;;;;4974354;28;20203;-82
2023/06/18 03:23:39;;;;;;;22.05;17.63;;;;;;;;;;4974798;28;20297;-82
2023/06/18 03:26:07;;;;;;;21.08;17.50;;;;;;;;;;4975059;28;20317;-82
2023/06/18 03:28:35;;;;;;;19.42;16.20;;;;;;;;;;4974794;28;20203;-81
2023/06/18 03:31:03;;;;;;;18.20;16.25;;;;;;;;;;4974524;28;20202;-82
2023/06/18 03:33:31;;;;;;;22.70;17.42;;;;;;;;;;4974535;28;20237;-82
2023/06/18 03:35:59;;;;;;;18.50;16.60;;;;;;;;;;4974483;28;20285;-81
2023/06/18 03:38:27;;;;;;;19.98;16.95;;;;;;;;;;4974275;28;20656;-82
2023/06/18 03:40:54;;;;;;;19.05;16.25;;;;;;;;;;4955104;28;20237;-82
2023/06/18 03:43:21;;;;;;;18.60;16.60;;;;;;;;;;4955026;28;20206;-81
2023/06/18 03:45:50;;;;;;;17.83;15.93;;;;;;;;;;4955223;29;20294;-82
2023/06/18 03:48:17;;;;;;;18.83;16.08;;;;;;;;;;4954136;28;20282;-82
2023/06/18 03:50:44;;;;;;;18.33;16.13;;;;;;;;;;4954658;28;20286;-82
2023/06/18 03:53:12;;;;;;;20.58;15.90;;;;;;;;;;4954833;29;20294;-82
2023/06/18 03:55:41;;;;;;;19.20;16.13;;;;;;;;;;4954639;29;20237;-82
2023/06/18 03:58:08;;;;;;;20.58;16.20;;;;;;;;;;4954929;28;20207;-82
2023/06/18 04:00:35;;;;;;;19.98;17.50;;;;;;;;;;4954515;29;20553;-82
2023/06/18 04:03:05;;;;;;;19.35;17.10;;;;;;;;;;4954519;29;20297;-82
2023/06/18 04:05:32;;;;;;;19.33;16.13;;;;;;;;;;4954362;28;20203;-82
2023/06/18 04:07:59;;;;;;;27.92;16.80;;;;;;;;;;4954372;29;20241;-82
2023/06/18 04:10:26;;;;;;;23.02;16.48;;;;;;;;;;4954866;29;20238;-82
2023/06/18 04:12:53;;;;;;;24.67;18.17;;;;;;;;;;4954877;29;20281;-81
2023/06/18 04:15:21;;;;;;;20.90;16.75;;;;;;;;;;4954429;29;20290;-82
2023/06/18 04:17:48;;;;;;;19.52;16.77;;;;;;;;;;4954261;29;20250;-82
2023/06/18 04:20:17;;;;;;;24.60;17.27;;;;;;;;;;4954209;29;20302;-82
2023/06/18 04:22:44;;;;;;;17.70;15.65;;;;;;;;;;4954586;29;20250;-81
2023/06/18 04:25:11;;;;;;;19.58;15.73;;;;;;;;;;4954592;29;20203;-82
2023/06/18 04:27:40;;;;;;;20.20;15.30;;;;;;;;;;4954498;28;20607;-81
2023/06/18 04:30:08;;;;;;;18.10;15.80;;;;;;;;;;4954249;28;20198;-81
2023/06/18 04:32:36;;;;;;;18.45;15.40;;;;;;;;;;4954314;29;20282;-82
2023/06/18 04:35:03;;;;;;;19.23;15.40;;;;;;;;;;4953977;29;20294;-82
2023/06/18 04:37:32;;;;;;;24.75;15.32;;;;;;;;;;4954184;29;20238;-82
2023/06/18 04:39:59;;;;;;;24.08;15.23;;;;;;;;;;4954231;28;20199;-82
2023/06/18 04:42:26;;;;;;;23.45;15.30;;;;;;;;;;4954447;29;20285;-82
2023/06/18 04:44:53;;;;;;;27.73;16.17;;;;;;;;;;4953703;29;20257;-82
2023/06/18 04:47:20;;;;;;;19.17;14.82;;;;;;;;;;4953521;28;20265;-82
2023/06/18 04:49:47;;;;;;;22.02;15.20;;;;;;;;;;4954058;29;20285;-82
2023/06/18 04:52:15;;;;;;;18.45;14.98;;;;;;;;;;4953679;28;20223;-82
2023/06/18 04:54:43;;;;;;;16.25;14.48;;;;;;;;;;4953862;29;20203;-82
2023/06/18 04:57:10;;;;;;;17.20;14.20;;;;;;;;;;4953882;29;20196;-81
2023/06/18 04:59:39;;;;;;;25.17;14.30;;;;;;;;;;4953453;28;20231;-82
2023/06/18 05:02:06;;;;;;;19.65;13.05;;;;;;;;;;4953582;28;20206;-83
2023/06/18 05:04:33;;;;;;;15.70;12.75;;;;;;;;;;4953858;29;20298;-82
2023/06/18 05:07:00;;;;;;;19.90;12.80;;;;;;;;;;4953710;28;20266;-82
2023/06/18 05:09:28;;;;;;;18.35;12.73;;;;;;;;;;4953535;28;20290;-82
2023/06/18 05:11:56;;;;;;;13.65;12.18;;;;;;;;;;4953786;28;20195;-82
2023/06/18 05:14:24;;;;;;;16.05;12.65;;;;;;;;;;4953258;28;20290;-81
2023/06/18 05:16:51;;;;;;;15.25;11.50;;;;;;;;;;4953089;28;20326;-82
2023/06/18 05:19:18;;;;;;;15.57;11.32;;;;;;;;;;4953799;28;20390;-82
2023/06/18 05:21:45;;;;;;;13.18;11.00;;;;;;;;;;4953303;28;20289;-82
2023/06/18 05:24:12;;;;;;;12.75;10.75;;;;;;;;;;4953514;29;20290;-82
2023/06/18 05:26:39;;;;;;;14.05;11.02;;;;;;;;;;4953781;29;20349;-83
2023/06/18 05:29:08;;;;;;;11.52;10.30;;;;;;;;;;4953373;28;20297;-83
2023/06/18 05:31:35;;;;;;;11.40;10.25;;;;;;;;;;4952779;28;20290;-81
2023/06/18 05:34:02;;;;;;;12.52;11.25;;;;;;;;;;4953391;29;20287;-82
2023/06/18 05:36:30;;;;;;;15.73;12.27;;;;;;;;;;4953367;29;20254;-82
2023/06/18 05:38:59;;;;;;;13.82;12.43;;;;;;;;;;4953642;29;20200;-83
2023/06/18 05:41:26;;;;;;;14.48;11.93;;;;;;;;;;4953426;28;20322;-83
2023/06/18 05:43:53;;;;;;;12.65;11.38;;;;;;;;;;4953273;29;20199;-82
2023/06/18 05:46:22;;;;;;;12.95;11.00;;;;;;;;;;4953136;29;20285;-82
2023/06/18 05:48:49;;;;;;;12.25;10.98;;;;;;;;;;4953330;29;20274;-82
2023/06/18 05:51:16;;;;;;;14.63;11.15;;;;;;;;;;4953090;28;20198;-82
2023/06/18 05:53:43;;;;;;;14.02;10.90;;;;;;;;;;4953257;29;20289;-82
2023/06/18 05:56:11;;;;;;;12.88;11.18;;;;;;;;;;4953209;29;20205;-83
2023/06/18 05:58:38;;;;;;;11.70;10.35;;;;;;;;;;4953210;29;20213;-82
2023/06/18 06:01:05;;;;;;;11.82;10.73;;;;;;;;;;4952785;28;20290;-82
2023/06/18 06:03:35;;;;;;;11.93;10.73;;;;;;;;;;4953039;29;20298;-83
2023/06/18 06:06:02;;;;;;;12.23;10.70;;;;;;;;;;4952727;28;20617;-82
2023/06/18 06:08:29;;;;;;;12.20;10.95;;;;;;;;;;4953206;28;20740;-82
2023/06/18 06:10:56;;;;;;;12.45;10.77;;;;;;;;;;4953331;28;20286;-82
2023/06/18 06:13:24;;;;;;;12.73;10.30;;;;;;;;;;4956657;28;20206;-82
2023/06/18 06:15:51;;;;;;;12.68;10.63;;;;;;;;;;4955888;29;20743;-83
2023/06/18 06:18:18;;;;;;;12.55;11.05;;;;;;;;;;4956388;29;20259;-83
2023/06/18 06:20:46;;;;;;;13.93;11.48;;;;;;;;;;4956660;28;20580;-82
2023/06/18 06:23:14;;;;;;;12.68;11.07;;;;;;;;;;4956735;29;20282;-83
2023/06/18 06:25:41;;;;;;;11.52;10.13;;;;;;;;;;4956389;29;20227;-82
2023/06/18 06:28:08;;;;;;;12.45;10.57;;;;;;;;;;4955776;29;20273;-82
2023/06/18 06:30:36;;;;;;;12.10;10.45;;;;;;;;;;4955896;29;20225;-83
2023/06/18 06:33:04;;;;;;;12.20;10.90;;;;;;;;;;4956262;29;20210;-82
2023/06/18 06:35:31;;;;;;;12.85;10.68;;;;;;;;;;4956633;29;20207;-82
2023/06/18 06:38:00;;;;;;;12.55;10.20;;;;;;;;;;4956249;28;20251;-82
2023/06/18 06:40:27;;;;;;;11.05;9.77;;;;;;;;;;4956297;29;20286;-82
2023/06/18 06:42:54;;;;;;;12.38;9.70;;;;;;;;;;4956539;29;20290;-83
2023/06/18 06:45:21;;;;;;;10.88;9.75;;;;;;;;;;4955942;29;20230;-82
2023/06/18 06:47:48;;;;;;;12.70;10.30;;;;;;;;;;4956009;29;20321;-83
2023/06/18 06:50:15;;;;;;;12.13;10.30;;;;;;;;;;4956002;28;20688;-82
2023/06/18 06:52:43;;;;;;;11.13;9.90;;;;;;;;;;4956044;29;20210;-81
2023/06/18 06:55:11;;;;;;;10.43;9.30;;;;;;;;;;4956260;29;20245;-83
2023/06/18 06:57:38;;;;;;;11.43;10.13;;;;;;;;;;4953889;28;20298;-83
2023/06/18 07:00:08;;;;;;;14.50;10.38;;;;;;;;;;4956123;28;20298;-84
2023/06/18 07:02:35;;;;;;;10.40;9.35;;;;;;;;;;4955712;28;20199;-84
2023/06/18 07:05:02;;;;;;;11.07;9.45;;;;;;;;;;4955747;29;20230;-81
2023/06/18 07:07:30;;;;;;;12.43;9.88;;;;;;;;;;4955670;29;20700;-79
2023/06/18 07:09:57;;;;;;;12.30;9.18;;;;;;;;;;4955918;28;20227;-81
2023/06/18 07:12:26;;;;;;;10.32;8.52;;;;;;;;;;4955433;29;20282;-79
2023/06/18 07:14:53;;;;;;;9.27;8.35;;;;;;;;;;4955647;29;20207;-80
2023/06/18 07:17:20;;;;;;;9.60;8.70;;;;;;;;;;4955399;29;20297;-80
2023/06/18 07:19:47;;;;;;;9.63;8.73;;;;;;;;;;4955480;29;20206;-80
2023/06/18 07:22:15;;;;;;;8.30;7.50;;;;;;;;;;4955396;28;20735;-80
2023/06/18 07:24:42;;;;;;;9.00;8.10;;;;;;;;;;4955193;28;20199;-80
2023/06/18 07:27:09;;;;;;;10.20;8.13;;;;;;;;;;4953616;29;20258;-80
2023/06/18 07:29:38;;;;;;;9.07;8.23;;;;;;;;;;4953802;29;20591;-80
2023/06/18 07:32:05;;;;;;;9.80;8.80;;;;;;;;;;4954944;29;20213;-79
2023/06/18 07:34:32;;;;;;;9.52;8.45;;;;;;;;;;4955778;28;20294;-81
2023/06/18 07:36:59;;;;;;;9.48;8.50;;;;;;;;;;4955329;28;20301;-81
2023/06/18 07:39:27;;;;;;;10.15;9.07;;;;;;;;;;4954761;28;20207;-79
2023/06/18 07:41:54;;;;;;;9.93;8.93;;;;;;;;;;4953183;29;20199;-81
2023/06/18 07:44:21;;;;;;;10.55;8.40;;;;;;;;;;4954720;29;20210;-83
2023/06/18 07:46:50;;;;;;;9.90;8.48;;;;;;;;;;4955105;29;20201;-82
2023/06/18 07:49:20;;;;;;;9.60;8.70;;;;;;;;;;4954926;28;20330;-85
2023/06/18 07:51:48;;;;;;;10.23;9.25;;;;;;;;;;4955332;28;20262;-83
2023/06/18 07:54:17;;;;;;;9.90;8.70;;;;;;;;;;4966419;28;20198;-82
2023/06/18 07:56:44;;;;;;;10.50;8.93;;;;;;;;;;4974039;28;20234;-82
2023/06/18 07:59:11;;;;;;;9.95;8.95;;;;;;;;;;4974013;28;20298;-82
2023/06/18 08:01:39;;;;;;;10.32;9.32;;;;;;;;;;4973865;28;20698;-82
2023/06/18 08:04:08;;;;;;;10.15;9.02;;;;;;;;;;4973826;28;20676;-82
2023/06/18 08:06:35;;;;;;;10.15;9.20;;;;;;;;;;4974088;28;20206;-82
2023/06/18 08:09:02;;;;;;;11.50;9.43;;;;;;;;;;4974011;28;20242;-83
2023/06/18 08:11:29;;;;;;;11.70;9.00;;;;;;;;;;4973660;28;20290;-82
2023/06/18 08:13:57;;;;;;;12.57;9.23;;;;;;;;;;4972074;28;20204;-82
2023/06/18 08:16:25;;;;;;;12.25;10.18;;;;;;;;;;4945957;29;20223;-82
2023/06/18 08:18:53;;;;;;;12.05;10.95;;;;;;;;;;4943930;29;20203;-81
2023/06/18 08:21:22;;;;;;;12.15;11.05;;;;;;;;;;4945974;29;20210;-81
2023/06/18 08:23:49;;;;;;;11.73;10.43;;;;;;;;;;4945171;29;20295;-80
2023/06/18 08:26:16;;;;;;;12.88;11.00;;;;;;;;;;4942229;29;20294;-80
2023/06/18 08:28:43;;;;;;;15.60;11.77;;;;;;;;;;4944657;29;20337;-80
2023/06/18 08:31:10;;;;;;;14.15;12.65;;;;;;;;;;4944357;29;20296;-80
2023/06/18 08:33:38;;;;;;;15.85;14.35;;;;;;;;;;4941744;28;20295;-80
2023/06/18 08:36:05;;;;;;;18.08;16.17;;;;;;;;;;4942978;29;20649;-78
2023/06/18 08:38:33;;;;;;;17.83;15.75;;;;;;;;;;4944072;29;20209;-78
2023/06/18 08:41:02;;;;;;;18.33;16.42;;;;;;;;;;4944210;29;20203;-79
2023/06/18 08:43:32;;;;;;;20.83;17.02;;;;;;;;;;4945361;28;20582;-79
2023/06/18 08:46:03;;;;;;;20.30;18.15;;;;;;;;;;4942459;29;20199;-79
2023/06/18 08:48:31;;;;;;;21.80;19.48;;;;;;;;;;4943449;29;20310;-79
2023/06/18 08:51:01;;;;;;;24.38;20.17;;;;;;;;;;4944876;29;20291;-79
2023/06/18 08:53:37;;;;;;;24.50;21.30;;;;;;;;;;4943667;29;20286;-79
2023/06/18 08:56:06;;;;;;;23.83;20.92;;;;;;;;;;4943110;29;20203;-79
2023/06/18 08:58:36;;;;;;;25.08;21.02;;;;;;;;;;4943305;29;20198;-80
2023/06/18 09:01:03;;;;;;;23.85;21.35;;;;;;;;;;4942922;29;20240;-81
2023/06/18 09:03:31;;;;;;;23.75;21.08;;;;;;;;;;4939815;28;20292;-80
2023/06/18 09:05:58;;;;;;;23.80;21.17;;;;;;;;;;4933975;29;20199;-81
2023/06/18 09:08:26;;;;;;;22.80;20.33;;;;;;;;;;4933842;29;20771;-81
2023/06/18 09:10:54;;;;;;;24.15;21.13;;;;;;;;;;4934846;29;20912;-80
2023/06/18 09:13:22;;;;;;;25.70;22.58;;;;;;;;;;4934450;29;20286;-80
2023/06/18 09:15:49;;;;;;;24.70;22.05;;;;;;;;;;4946720;29;20235;-80
2023/06/18 09:18:17;;;;;;;28.90;23.30;;;;;;;;;;4948883;29;20318;-81
2023/06/18 09:20:45;;;;;;;24.55;22.05;;;;;;;;;;4968917;28;20237;-81
2023/06/18 09:23:12;;;;;;;25.58;22.83;;;;;;;;;;4962621;28;20206;-78
2023/06/18 09:25:39;;;;;;;25.88;22.60;;;;;;;;;;4953596;29;20282;-79
2023/06/18 09:28:06;;;;;;;27.45;23.52;;;;;;;;;;4953020;29;20258;-79
2023/06/18 09:30:35;;;;;;;26.35;22.80;;;;;;;;;;4953017;29;20314;-81
2023/06/18 09:33:02;;;;;;;28.00;23.40;;;;;;;;;;4953130;28;20203;-82
2023/06/18 09:35:32;;;;;;;27.83;24.25;;;;;;;;;;4952569;28;20200;-80
2023/06/18 09:38:08;;;;;;;26.25;23.48;;;;;;;;;;4952001;28;20258;-80
2023/06/18 09:40:36;;;;;;;26.52;23.52;;;;;;;;;;4946241;29;20294;-82
2023/06/18 09:43:04;;;;;;;26.77;24.02;;;;;;;;;;4965804;28;20659;-82
2023/06/18 09:45:31;;;;;;;26.45;23.33;;;;;;;;;;4972387;28;20254;-81
2023/06/18 09:48:00;;;;;;;25.08;22.40;;;;;;;;;;4976063;28;20198;-82
2023/06/18 09:50:27;;;;;;;25.42;22.83;;;;;;;;;;4976632;28;20202;-81
2023/06/18 09:52:54;;;;;;;26.45;22.58;;;;;;;;;;4976077;28;20226;-81
2023/06/18 09:55:27;;;;;;;25.65;23.15;;;;;;;;;;4976633;28;20198;-81
2023/06/18 09:57:54;;;;;;;23.45;21.15;;;;;;;;;;4976022;28;20668;-82
2023/06/18 10:00:22;;;;;;;25.98;21.98;;;;;;;;;;4976562;28;20195;-81
2023/06/18 10:02:49;;;;;;;21.80;19.70;;;;;;;;;;4976215;28;20202;-82
2023/06/18 10:05:18;;;;;;;23.83;21.42;;;;;;;;;;4976060;28;20663;-81
2023/06/18 10:07:47;;;;;;;22.45;20.15;;;;;;;;;;4976121;28;20298;-82
2023/06/18 10:10:15;;;;;;;22.88;20.58;;;;;;;;;;4975915;28;20298;-81
2023/06/18 10:12:43;;;;;;;24.35;21.77;;;;;;;;;;4975941;28;20572;-81
2023/06/18 10:15:12;;;;;;;23.85;21.40;;;;;;;;;;4968472;28;20209;-81
2023/06/18 10:17:43;;;;;;;23.42;21.13;;;;;;;;;;4956546;29;20646;-81
2023/06/18 10:20:13;;;;;;;23.80;21.40;;;;;;;;;;4956446;29;20254;-81
2023/06/18 10:22:43;;;;;;;24.90;22.23;;;;;;;;;;4956377;29;20227;-81
2023/06/18 10:25:11;;;;;;;23.92;21.55;;;;;;;;;;4956695;29;20278;-81
2023/06/18 10:27:39;;;;;;;25.13;22.33;;;;;;;;;;4956588;28;20231;-81
2023/06/18 10:30:07;;;;;;;22.77;20.10;;;;;;;;;;4956606;29;20270;-81
2023/06/18 10:32:36;;;;;;;22.60;19.40;;;;;;;;;;4956533;29;20199;-81
2023/06/18 10:35:08;;;;;;;26.98;20.20;;;;;;;;;;4956562;29;20210;-85
2023/06/18 10:37:36;;;;;;;25.42;18.85;;;;;;;;;;4956568;29;20195;-83
2023/06/18 10:40:05;;;;;;;21.50;18.17;;;;;;;;;;4956566;28;20297;-82
2023/06/18 10:42:33;;;;;;;20.13;17.52;;;;;;;;;;4956401;28;20298;-82
2023/06/18 10:45:02;;;;;;;23.17;18.92;;;;;;;;;;4956379;28;20623;-82
2023/06/18 10:47:30;;;;;;;22.90;17.77;;;;;;;;;;4956318;28;20292;-81
2023/06/18 10:50:13;;;;;;;28.08;17.95;;;;;;;;;;4955900;28;20227;-81
2023/06/18 10:52:40;;;;;;;20.80;16.65;;;;;;;;;;4956081;29;20567;-82
2023/06/18 10:55:09;;;;;;;18.50;15.13;;;;;;;;;;4956128;28;20209;-81
2023/06/18 10:57:37;;;;;;;22.13;16.15;;;;;;;;;;4955820;28;20286;-81
2023/06/18 11:00:15;;;;;;;17.77;15.45;;;;;;;;;;4956024;28;20203;-81
2023/06/18 11:02:42;;;;;;;19.45;15.27;;;;;;;;;;4956000;29;20207;-81
2023/06/18 11:05:15;;;;;;;19.77;15.00;;;;;;;;;;4956151;29;20199;-81
2023/06/18 11:07:42;;;;;;;20.95;15.10;;;;;;;;;;4956117;28;20207;-81
2023/06/18 11:10:11;;;;;;;19.08;14.95;;;;;;;;;;4955595;28;20322;-81
2023/06/18 11:12:42;;;;;;;17.88;14.95;;;;;;;;;;4955402;29;20242;-81
2023/06/18 11:15:16;;;;;;;18.83;14.70;;;;;;;;;;4953214;29;20306;-83
2023/06/18 11:17:44;;;;;;;20.23;14.75;;;;;;;;;;4951807;28;20262;-82
2023/06/18 11:20:13;;;;;;;15.95;14.18;;;;;;;;;;4940563;28;20319;-82
2023/06/18 11:22:41;;;;;;;17.13;14.55;;;;;;;;;;4944284;29;20202;-81
2023/06/18 11:25:09;;;;;;;16.83;14.93;;;;;;;;;;4937261;29;20752;-82
2023/06/18 11:27:40;;;;;;;18.60;15.02;;;;;;;;;;4940579;29;20215;-82
2023/06/18 11:30:07;;;;;;;19.20;15.50;;;;;;;;;;4950827;28;20227;-81
2023/06/18 11:32:35;;;;;;;18.42;15.05;;;;;;;;;;4963859;28;20659;-79
2023/06/18 11:35:02;;;;;;;15.23;13.15;;;;;;;;;;4943689;28;20298;-82
2023/06/18 11:37:29;;;;;;;20.05;14.98;;;;;;;;;;4947492;28;20209;-81
2023/06/18 11:39:57;;;;;;;16.15;14.25;;;;;;;;;;4953667;29;20662;-81
2023/06/18 11:42:27;;;;;;;15.93;14.23;;;;;;;;;;4951222;28;20230;-82
2023/06/18 11:44:56;;;;;;;15.57;12.32;;;;;;;;;;4948873;28;20234;-81
2023/06/18 11:47:23;;;;;;;13.05;11.65;;;;;;;;;;4948669;28;20203;-81
2023/06/18 11:49:52;;;;;;;12.50;11.20;;;;;;;;;;4950132;28;20315;-81
2023/06/18 11:52:20;;;;;;;13.73;11.50;;;;;;;;;;4944129;28;20203;-80
2023/06/18 11:54:48;;;;;;;13.05;11.23;;;;;;;;;;4948143;28;20200;-81
2023/06/18 11:57:16;;;;;;;12.85;10.35;;;;;;;;;;4949260;28;20196;-80
2023/06/18 11:59:43;;;;;;;11.80;10.27;;;;;;;;;;4946836;28;20294;-78
2023/06/18 12:02:12;;;;;;;10.25;9.18;;;;;;;;;;4950859;28;20289;-79
2023/06/18 12:04:40;;;;;;;10.73;9.63;;;;;;;;;;4944373;28;20196;-79
2023/06/18 12:07:07;;;;;;;11.48;10.38;;;;;;;;;;4944708;29;20196;-79
2023/06/18 12:09:36;;;;;;;12.50;10.13;;;;;;;;;;4954690;28;20270;-80
2023/06/18 12:12:08;;;;;;;11.45;9.63;;;;;;;;;;4950963;28;20572;-81
2023/06/18 12:14:38;;;;;;;11.93;10.32;;;;;;;;;;4944767;28;20234;-79
2023/06/18 12:17:08;;;;;;;11.27;10.07;;;;;;;;;;4942951;29;20357;-79
2023/06/18 12:19:37;;;;;;;10.45;9.25;;;;;;;;;;4944546;29;20275;-80
2023/06/18 12:22:05;;;;;;;11.13;10.00;;;;;;;;;;4945440;29;20302;-81
2023/06/18 12:24:32;;;;;;;10.65;8.68;;;;;;;;;;4943192;29;20192;-79
2023/06/18 12:26:59;;;;;;;10.73;9.57;;;;;;;;;;4945849;29;20224;-80
2023/06/18 12:29:27;;;;;;;12.00;9.23;;;;;;;;;;4945705;28;20283;-80
2023/06/18 12:32:04;;;;;;;10.15;8.95;;;;;;;;;;4943489;29;20208;-81
2023/06/18 12:34:35;;;;;;;9.80;8.85;;;;;;;;;;4943494;29;20244;-78
2023/06/18 12:37:04;;;;;;;11.98;8.77;;;;;;;;;;4944936;28;20251;-80
2023/06/18 12:39:31;;;;;;;8.00;7.20;;;;;;;;;;4944479;29;20677;-80
2023/06/18 12:41:58;;;;;;;8.55;7.60;;;;;;;;;;4944702;29;20279;-80
2023/06/18 12:44:27;;;;;;;8.57;7.70;;;;;;;;;;4944599;29;20261;-80
2023/06/18 12:46:56;;;;;;;7.78;6.97;;;;;;;;;;4942774;29;20208;-80
2023/06/18 12:49:24;;;;;;;10.23;7.63;;;;;;;;;;4943173;29;20305;-80
2023/06/18 12:51:53;;;;;;;7.88;6.20;;;;;;;;;;4942851;28;20192;-78
2023/06/18 12:54:22;;;;;;;6.85;5.82;;;;;;;;;;4945966;29;20275;-80
2023/06/18 12:56:50;;;;;;;6.72;5.93;;;;;;;;;;4942360;29;20708;-80
2023/06/18 12:59:18;;;;;;;7.05;6.35;;;;;;;;;;4943804;29;20278;-80
2023/06/18 13:01:46;;;;;;;6.45;4.82;;;;;;;;;;4944164;29;20295;-80
2023/06/18 13:04:13;;;;;;;5.15;4.65;;;;;;;;;;4943022;29;20290;-80
2023/06/18 13:06:40;;;;;;;5.70;5.20;;;;;;;;;;4942817;29;20199;-80
2023/06/18 13:09:08;;;;;;;6.25;4.85;;;;;;;;;;4944629;29;20229;-80
2023/06/18 13:11:38;;;;;;;5.57;5.00;;;;;;;;;;4947978;29;20195;-81
2023/06/18 13:14:05;;;;;;;5.40;4.90;;;;;;;;;;4949965;28;20210;-80
2023/06/18 13:16:33;;;;;;;5.05;4.57;;;;;;;;;;4943217;29;20230;-80
2023/06/18 13:19:04;;;;;;;4.95;4.55;;;;;;;;;;4943531;28;20262;-79
2023/06/18 13:21:33;;;;;;;4.97;4.47;;;;;;;;;;4945063;28;20645;-80
2023/06/18 13:24:00;;;;;;;5.15;4.65;;;;;;;;;;4945760;28;20619;-80
2023/06/18 13:26:29;;;;;;;5.18;4.68;;;;;;;;;;4943927;29;20199;-79
2023/06/18 13:28:58;;;;;;;5.13;4.72;;;;;;;;;;4943955;29;20200;-80
2023/06/18 13:31:25;;;;;;;6.45;4.88;;;;;;;;;;4942519;29;20199;-80
2023/06/18 13:33:52;;;;;;;4.70;4.30;;;;;;;;;;4947033;28;20196;-80
2023/06/18 13:36:19;;;;;;;4.68;4.28;;;;;;;;;;4946616;28;20578;-81
2023/06/18 13:38:47;;;;;;;5.75;5.15;;;;;;;;;;4946869;28;20205;-80
2023/06/18 13:41:14;;;;;;;5.30;4.82;;;;;;;;;;4944862;28;20293;-80
2023/06/18 13:43:41;;;;;;;5.22;4.72;;;;;;;;;;4944627;28;20230;-80
2023/06/18 13:46:09;;;;;;;4.88;4.47;;;;;;;;;;4943649;29;20294;-79
2023/06/18 13:48:37;;;;;;;6.50;5.57;;;;;;;;;;4942475;29;20628;-79
2023/06/18 13:51:04;;;;;;;6.63;5.13;;;;;;;;;;4943629;28;20674;-80
2023/06/18 13:53:31;;;;;;;8.43;6.00;;;;;;;;;;4941921;29;20246;-80
2023/06/18 13:55:59;;;;;;;6.13;5.40;;;;;;;;;;4944154;29;20286;-80
2023/06/18 13:58:26;;;;;;;6.22;5.63;;;;;;;;;;4942001;29;20649;-79
2023/06/18 14:00:53;;;;;;;7.97;5.22;;;;;;;;;;4943738;28;20212;-80
2023/06/18 14:03:22;;;;;;;6.13;5.53;;;;;;;;;;4942018;29;20203;-80
2023/06/18 14:05:49;;;;;;;6.47;5.72;;;;;;;;;;4942389;29;20223;-80
2023/06/18 14:08:17;;;;;;;7.55;5.45;;;;;;;;;;4941808;28;20298;-80
2023/06/18 14:10:44;;;;;;;6.28;4.88;;;;;;;;;;4943251;29;20322;-81
2023/06/18 14:13:11;;;;;;;7.30;5.75;;;;;;;;;;4943449;29;20294;-80
2023/06/18 14:15:38;;;;;;;6.95;5.45;;;;;;;;;;4944382;28;20265;-80
2023/06/18 14:18:07;;;;;;;5.25;4.75;;;;;;;;;;4941545;28;20261;-80
2023/06/18 14:20:36;;;;;;;8.18;7.38;;;;;;;;;;4942770;28;20661;-80
2023/06/18 14:23:03;;;;;;;46.80;42.70;;;;;;;;;;4943668;29;20572;-80
2023/06/18 14:25:30;;;;;;;17.90;16.30;;;;;;;;;;4942972;28;20257;-80